Geyser, Montana
Current Conditions -  °F | °C
As of 10:56 PM on Sunday 28 Dec 2014 (Local Time) from KGFA Reporting Station
Light Snow Light Snow  
Wind Chill: -9°   Ceiling: 2300
Heat Index:   Visibility: 3mi
Dew Point:   Wind: 10mph
Humidity: 90%   Direction: 350°N
Pressure: 30.42"   Gusts: NA
Location:  47.25°N, 110.5°W
Report Text: KGFA 290556Z AUTO 35009KT 3SM -SN OVC023 M14/M16 A3042 RMK AO2 OVC V BKN SLP396 T11451158 11116 21145 52024
Loading
Personal Weather Stations






























Interactive Weather Map New forecast layout! Learn more

10-Day Weather Forecast

Advertisements
Track Severe Weather on mobile